sensor_id;sensor_type;location;lat;lon;timestamp;pressure;altitude;pressure_sealevel;temperature;humidity
55675;BME280;41562;44.330;23.802;2023-08-30T00:00:43;99164.19;;;21.94;100.00
55675;BME280;41562;44.330;23.802;2023-08-30T00:03:12;99190.00;;;22.07;100.00
55675;BME280;41562;44.330;23.802;2023-08-30T00:05:40;99202.00;;;22.02;100.00
55675;BME280;41562;44.330;23.802;2023-08-30T00:08:11;99191.13;;;22.02;100.00
55675;BME280;41562;44.330;23.802;2023-08-30T00:10:39;99174.50;;;22.11;100.00
55675;BME280;41562;44.330;23.802;2023-08-30T00:13:16;99159.34;;;22.14;100.00
55675;BME280;41562;44.330;23.802;2023-08-30T00:15:49;99155.66;;;21.95;100.00
55675;BME280;41562;44.330;23.802;2023-08-30T00:18:19;99150.44;;;21.83;100.00
55675;BME280;41562;44.330;23.802;2023-08-30T00:20:52;99145.59;;;21.99;100.00
55675;BME280;41562;44.330;23.802;2023-08-30T00:23:22;99145.84;;;21.87;100.00
55675;BME280;41562;44.330;23.802;2023-08-30T00:25:59;99135.69;;;21.84;100.00
55675;BME280;41562;44.330;23.802;2023-08-30T00:28:30;99118.19;;;21.85;100.00
55675;BME280;41562;44.330;23.802;2023-08-30T00:30:57;99098.69;;;21.80;100.00
55675;BME280;41562;44.330;23.802;2023-08-30T00:33:28;99090.91;;;21.78;100.00
55675;BME280;41562;44.330;23.802;2023-08-30T00:35:57;99085.38;;;21.71;100.00
55675;BME280;41562;44.330;23.802;2023-08-30T00:38:26;99079.66;;;21.80;100.00
55675;BME280;41562;44.330;23.802;2023-08-30T00:40:59;99069.50;;;21.77;100.00
55675;BME280;41562;44.330;23.802;2023-08-30T00:43:29;99063.53;;;21.64;100.00
55675;BME280;41562;44.330;23.802;2023-08-30T00:46:06;99066.25;;;21.64;100.00
55675;BME280;41562;44.330;23.802;2023-08-30T00:48:34;99054.06;;;21.51;100.00
55675;BME280;41562;44.330;23.802;2023-08-30T00:51:07;99051.06;;;21.59;100.00
55675;BME280;41562;44.330;23.802;2023-08-30T00:53:35;99048.00;;;21.64;100.00
55675;BME280;41562;44.330;23.802;2023-08-30T00:56:03;99051.41;;;21.54;100.00
55675;BME280;41562;44.330;23.802;2023-08-30T00:58:31;99058.88;;;21.64;100.00
55675;BME280;41562;44.330;23.802;2023-08-30T01:01:01;99062.38;;;21.65;100.00
55675;BME280;41562;44.330;23.802;2023-08-30T01:03:34;99070.84;;;21.56;100.00
55675;BME280;41562;44.330;23.802;2023-08-30T01:06:02;99065.72;;;21.51;100.00
55675;BME280;41562;44.330;23.802;2023-08-30T01:08:31;99065.72;;;21.48;100.00
55675;BME280;41562;44.330;23.802;2023-08-30T01:14:13;99085.94;;;21.50;100.00
55675;BME280;41562;44.330;23.802;2023-08-30T01:16:43;99088.03;;;21.64;100.00
55675;BME280;41562;44.330;23.802;2023-08-30T01:21:58;99096.19;;;21.64;100.00
55675;BME280;41562;44.330;23.802;2023-08-30T01:27:28;99103.53;;;21.26;100.00
55675;BME280;41562;44.330;23.802;2023-08-30T01:29:57;99101.31;;;21.36;100.00
55675;BME280;41562;44.330;23.802;2023-08-30T01:32:32;99108.31;;;21.37;100.00
55675;BME280;41562;44.330;23.802;2023-08-30T01:35:05;99115.78;;;21.43;100.00
55675;BME280;41562;44.330;23.802;2023-08-30T01:37:36;99113.00;;;21.40;100.00
55675;BME280;41562;44.330;23.802;2023-08-30T01:40:09;99118.19;;;21.48;100.00
55675;BME280;41562;44.330;23.802;2023-08-30T01:42:39;99130.00;;;21.30;100.00
55675;BME280;41562;44.330;23.802;2023-08-30T01:45:11;99132.25;;;21.57;100.00
55675;BME280;41562;44.330;23.802;2023-08-30T01:47:42;99151.44;;;21.68;100.00
55675;BME280;41562;44.330;23.802;2023-08-30T01:50:13;99170.97;;;21.77;100.00
55675;BME280;41562;44.330;23.802;2023-08-30T01:52:44;99182.78;;;21.55;100.00
55675;BME280;41562;44.330;23.802;2023-08-30T01:55:15;99176.88;;;21.49;100.00
55675;BME280;41562;44.330;23.802;2023-08-30T01:57:48;99198.72;;;21.56;100.00
55675;BME280;41562;44.330;23.802;2023-08-30T02:00:21;99196.75;;;21.53;100.00
55675;BME280;41562;44.330;23.802;2023-08-30T02:02:58;99196.59;;;21.43;100.00
55675;BME280;41562;44.330;23.802;2023-08-30T02:05:35;99183.81;;;21.47;100.00
55675;BME280;41562;44.330;23.802;2023-08-30T02:08:09;99182.44;;;21.60;100.00
55675;BME280;41562;44.330;23.802;2023-08-30T02:10:50;99185.88;;;21.57;100.00
55675;BME280;41562;44.330;23.802;2023-08-30T02:13:26;99163.63;;;21.48;100.00
55675;BME280;41562;44.330;23.802;2023-08-30T02:16:00;99164.13;;;21.57;100.00
55675;BME280;41562;44.330;23.802;2023-08-30T02:18:29;99176.56;;;21.58;100.00
55675;BME280;41562;44.330;23.802;2023-08-30T02:21:01;99159.81;;;21.52;100.00
55675;BME280;41562;44.330;23.802;2023-08-30T02:23:29;99154.13;;;21.35;100.00
55675;BME280;41562;44.330;23.802;2023-08-30T02:26:03;99163.56;;;21.44;100.00
55675;BME280;41562;44.330;23.802;2023-08-30T02:28:33;99165.25;;;21.52;100.00
55675;BME280;41562;44.330;23.802;2023-08-30T02:31:05;99156.44;;;21.33;100.00
55675;BME280;41562;44.330;23.802;2023-08-30T02:33:36;99161.47;;;21.31;100.00
55675;BME280;41562;44.330;23.802;2023-08-30T02:36:07;99136.28;;;21.37;100.00
55675;BME280;41562;44.330;23.802;2023-08-30T02:38:40;99122.00;;;21.44;100.00
55675;BME280;41562;44.330;23.802;2023-08-30T02:41:08;99109.22;;;21.48;100.00
55675;BME280;41562;44.330;23.802;2023-08-30T02:43:38;99095.31;;;21.56;100.00
55675;BME280;41562;44.330;23.802;2023-08-30T02:46:08;99076.78;;;21.65;100.00
55675;BME280;41562;44.330;23.802;2023-08-30T02:48:40;99085.09;;;21.43;100.00
55675;BME280;41562;44.330;23.802;2023-08-30T02:51:13;99098.38;;;21.51;100.00
55675;BME280;41562;44.330;23.802;2023-08-30T02:53:40;99110.66;;;21.38;100.00
55675;BME280;41562;44.330;23.802;2023-08-30T02:56:14;99111.34;;;21.32;100.00
55675;BME280;41562;44.330;23.802;2023-08-30T02:58:41;99137.66;;;21.54;100.00
55675;BME280;41562;44.330;23.802;2023-08-30T03:01:20;99151.59;;;21.49;100.00
55675;BME280;41562;44.330;23.802;2023-08-30T03:04:04;99158.91;;;21.45;100.00
55675;BME280;41562;44.330;23.802;2023-08-30T03:06:38;99167.78;;;21.38;100.00
55675;BME280;41562;44.330;23.802;2023-08-30T03:09:08;99179.03;;;21.37;100.00
55675;BME280;41562;44.330;23.802;2023-08-30T03:11:39;99179.38;;;21.65;100.00
55675;BME280;41562;44.330;23.802;2023-08-30T03:14:07;99177.56;;;21.76;100.00
55675;BME280;41562;44.330;23.802;2023-08-30T03:16:37;99178.38;;;21.47;100.00
55675;BME280;41562;44.330;23.802;2023-08-30T03:19:09;99189.84;;;21.33;100.00
55675;BME280;41562;44.330;23.802;2023-08-30T03:21:36;99202.34;;;21.38;100.00
55675;BME280;41562;44.330;23.802;2023-08-30T03:24:10;99205.34;;;21.29;100.00
55675;BME280;41562;44.330;23.802;2023-08-30T03:26:42;99214.06;;;21.42;100.00
55675;BME280;41562;44.330;23.802;2023-08-30T03:29:16;99213.16;;;21.31;100.00
55675;BME280;41562;44.330;23.802;2023-08-30T03:31:44;99209.06;;;21.17;100.00
55675;BME280;41562;44.330;23.802;2023-08-30T03:34:14;99204.59;;;21.92;100.00
55675;BME280;41562;44.330;23.802;2023-08-30T03:36:43;99204.69;;;22.76;100.00
55675;BME280;41562;44.330;23.802;2023-08-30T03:39:13;99201.50;;;22.71;100.00
55675;BME280;41562;44.330;23.802;2023-08-30T03:41:47;99216.81;;;23.37;99.59
55675;BME280;41562;44.330;23.802;2023-08-30T03:44:18;99234.75;;;23.38;99.72
55675;BME280;41562;44.330;23.802;2023-08-30T03:46:46;99247.06;;;23.18;100.00
55675;BME280;41562;44.330;23.802;2023-08-30T03:49:16;99253.84;;;23.42;99.83
55675;BME280;41562;44.330;23.802;2023-08-30T03:51:51;99270.84;;;23.76;100.00
55675;BME280;41562;44.330;23.802;2023-08-30T03:54:22;99276.31;;;23.76;100.00
55675;BME280;41562;44.330;23.802;2023-08-30T03:56:52;99278.50;;;23.52;100.00
55675;BME280;41562;44.330;23.802;2023-08-30T03:59:23;99289.22;;;23.82;100.00
55675;BME280;41562;44.330;23.802;2023-08-30T04:01:56;99299.53;;;23.48;100.00
55675;BME280;41562;44.330;23.802;2023-08-30T04:04:24;99334.19;;;24.02;100.00
55675;BME280;41562;44.330;23.802;2023-08-30T04:07:01;99328.16;;;24.52;96.26
55675;BME280;41562;44.330;23.802;2023-08-30T04:09:32;99338.53;;;24.14;98.97
55675;BME280;41562;44.330;23.802;2023-08-30T04:12:03;99330.22;;;23.93;98.93
55675;BME280;41562;44.330;23.802;2023-08-30T04:14:37;99328.59;;;23.81;99.66
55675;BME280;41562;44.330;23.802;2023-08-30T04:17:06;99313.19;;;23.48;100.00
55675;BME280;41562;44.330;23.802;2023-08-30T04:19:33;99298.44;;;23.56;100.00
55675;BME280;41562;44.330;23.802;2023-08-30T04:22:07;99270.75;;;23.58;100.00
55675;BME280;41562;44.330;23.802;2023-08-30T04:24:35;99211.63;;;23.18;100.00
55675;BME280;41562;44.330;23.802;2023-08-30T04:27:08;99170.16;;;23.56;100.00
55675;BME280;41562;44.330;23.802;2023-08-30T04:29:42;99140.81;;;23.39;100.00
55675;BME280;41562;44.330;23.802;2023-08-30T04:32:10;99187.38;;;23.06;100.00
55675;BME280;41562;44.330;23.802;2023-08-30T04:34:45;99200.63;;;22.60;100.00
55675;BME280;41562;44.330;23.802;2023-08-30T04:37:17;99208.09;;;22.26;100.00
55675;BME280;41562;44.330;23.802;2023-08-30T04:39:48;99200.59;;;22.56;100.00
55675;BME280;41562;44.330;23.802;2023-08-30T04:42:25;99196.44;;;22.69;100.00
55675;BME280;41562;44.330;23.802;2023-08-30T04:45:00;99202.63;;;22.63;100.00
55675;BME280;41562;44.330;23.802;2023-08-30T04:47:28;99167.63;;;22.68;100.00
55675;BME280;41562;44.330;23.802;2023-08-30T04:50:00;99149.84;;;22.81;100.00
55675;BME280;41562;44.330;23.802;2023-08-30T04:52:28;99140.88;;;22.84;100.00
55675;BME280;41562;44.330;23.802;2023-08-30T04:54:56;99143.97;;;22.79;100.00
55675;BME280;41562;44.330;23.802;2023-08-30T04:57:27;99131.81;;;23.35;100.00
55675;BME280;41562;44.330;23.802;2023-08-30T04:59:55;99120.47;;;23.26;100.00
55675;BME280;41562;44.330;23.802;2023-08-30T05:02:26;99131.97;;;22.88;100.00
55675;BME280;41562;44.330;23.802;2023-08-30T05:05:00;99133.75;;;22.69;100.00
55675;BME280;41562;44.330;23.802;2023-08-30T05:07:34;99124.31;;;22.56;100.00
55675;BME280;41562;44.330;23.802;2023-08-30T05:10:02;99118.31;;;22.36;100.00
55675;BME280;41562;44.330;23.802;2023-08-30T05:12:38;99116.94;;;22.60;100.00
55675;BME280;41562;44.330;23.802;2023-08-30T05:15:11;99123.31;;;22.78;100.00
55675;BME280;41562;44.330;23.802;2023-08-30T05:17:42;99129.97;;;22.84;100.00
55675;BME280;41562;44.330;23.802;2023-08-30T05:20:09;99143.44;;;23.18;100.00
55675;BME280;41562;44.330;23.802;2023-08-30T05:22:40;99125.06;;;23.11;100.00
55675;BME280;41562;44.330;23.802;2023-08-30T05:25:26;99120.78;;;23.10;100.00
55675;BME280;41562;44.330;23.802;2023-08-30T05:28:31;99139.31;;;22.83;100.00
55675;BME280;41562;44.330;23.802;2023-08-30T05:31:09;99136.19;;;22.81;100.00
55675;BME280;41562;44.330;23.802;2023-08-30T05:33:46;99152.69;;;23.03;100.00
55675;BME280;41562;44.330;23.802;2023-08-30T05:36:13;99162.19;;;23.30;100.00
55675;BME280;41562;44.330;23.802;2023-08-30T05:38:49;99174.69;;;23.31;100.00
55675;BME280;41562;44.330;23.802;2023-08-30T05:41:18;99181.72;;;23.36;100.00
55675;BME280;41562;44.330;23.802;2023-08-30T05:43:46;99174.31;;;23.36;100.00
55675;BME280;41562;44.330;23.802;2023-08-30T05:46:17;99163.03;;;23.41;100.00
55675;BME280;41562;44.330;23.802;2023-08-30T05:48:48;99172.94;;;23.74;100.00
55675;BME280;41562;44.330;23.802;2023-08-30T05:51:25;99202.78;;;23.46;100.00
55675;BME280;41562;44.330;23.802;2023-08-30T05:53:55;99212.25;;;23.55;100.00
55675;BME280;41562;44.330;23.802;2023-08-30T05:56:22;99238.13;;;23.21;100.00
55675;BME280;41562;44.330;23.802;2023-08-30T05:58:53;99248.72;;;23.30;100.00
55675;BME280;41562;44.330;23.802;2023-08-30T06:01:21;99235.25;;;23.00;100.00
55675;BME280;41562;44.330;23.802;2023-08-30T06:03:58;99230.41;;;23.30;100.00
55675;BME280;41562;44.330;23.802;2023-08-30T06:06:32;99239.22;;;23.64;100.00
55675;BME280;41562;44.330;23.802;2023-08-30T06:09:05;99230.78;;;24.04;99.58
55675;BME280;41562;44.330;23.802;2023-08-30T06:11:34;99232.03;;;24.28;98.00
55675;BME280;41562;44.330;23.802;2023-08-30T06:14:04;99248.69;;;23.98;100.00
55675;BME280;41562;44.330;23.802;2023-08-30T06:16:35;99240.97;;;24.15;100.00
55675;BME280;41562;44.330;23.802;2023-08-30T06:19:03;99241.63;;;23.90;100.00
55675;BME280;41562;44.330;23.802;2023-08-30T06:21:32;99243.25;;;23.95;100.00
55675;BME280;41562;44.330;23.802;2023-08-30T06:24:05;99245.94;;;23.91;100.00
55675;BME280;41562;44.330;23.802;2023-08-30T06:26:36;99216.31;;;23.97;100.00
55675;BME280;41562;44.330;23.802;2023-08-30T06:29:04;99222.53;;;23.83;100.00
55675;BME280;41562;44.330;23.802;2023-08-30T06:31:35;99222.53;;;23.87;100.00
55675;BME280;41562;44.330;23.802;2023-08-30T06:34:05;99236.66;;;24.07;99.33
55675;BME280;41562;44.330;23.802;2023-08-30T06:36:36;99256.84;;;23.88;100.00
55675;BME280;41562;44.330;23.802;2023-08-30T06:39:10;99267.00;;;23.87;100.00
55675;BME280;41562;44.330;23.802;2023-08-30T06:41:43;99270.13;;;23.89;100.00
55675;BME280;41562;44.330;23.802;2023-08-30T06:44:10;99256.03;;;23.77;100.00
55675;BME280;41562;44.330;23.802;2023-08-30T06:46:44;99257.31;;;24.00;100.00
55675;BME280;41562;44.330;23.802;2023-08-30T06:49:15;99257.63;;;23.85;100.00
55675;BME280;41562;44.330;23.802;2023-08-30T06:51:46;99266.22;;;23.83;100.00
55675;BME280;41562;44.330;23.802;2023-08-30T06:54:17;99260.78;;;23.94;100.00
55675;BME280;41562;44.330;23.802;2023-08-30T06:57:03;99267.09;;;24.16;99.59
55675;BME280;41562;44.330;23.802;2023-08-30T06:59:34;99267.19;;;24.33;98.76
55675;BME280;41562;44.330;23.802;2023-08-30T07:02:06;99276.91;;;24.20;99.78
55675;BME280;41562;44.330;23.802;2023-08-30T07:04:37;99271.13;;;24.43;98.14
55675;BME280;41562;44.330;23.802;2023-08-30T07:07:12;99281.28;;;24.46;98.08
55675;BME280;41562;44.330;23.802;2023-08-30T07:09:49;99283.22;;;24.38;99.08
55675;BME280;41562;44.330;23.802;2023-08-30T07:12:21;99284.22;;;23.98;100.00
55675;BME280;41562;44.330;23.802;2023-08-30T07:14:54;99287.72;;;23.99;100.00
55675;BME280;41562;44.330;23.802;2023-08-30T07:17:27;99292.47;;;24.16;100.00
55675;BME280;41562;44.330;23.802;2023-08-30T07:20:21;99299.09;;;24.08;100.00
55675;BME280;41562;44.330;23.802;2023-08-30T07:22:52;99318.59;;;24.07;99.18
55675;BME280;41562;44.330;23.802;2023-08-30T07:25:23;99317.91;;;24.20;97.52
55675;BME280;41562;44.330;23.802;2023-08-30T07:27:57;99302.47;;;23.84;98.89
55675;BME280;41562;44.330;23.802;2023-08-30T07:30:28;99303.44;;;24.20;96.89
55675;BME280;41562;44.330;23.802;2023-08-30T07:32:59;99323.25;;;24.02;97.84
55675;BME280;41562;44.330;23.802;2023-08-30T07:35:30;99339.53;;;23.81;99.17
55675;BME280;41562;44.330;23.802;2023-08-30T07:37:59;99333.66;;;23.76;100.00
55675;BME280;41562;44.330;23.802;2023-08-30T07:40:30;99335.53;;;23.68;100.00
55675;BME280;41562;44.330;23.802;2023-08-30T07:43:04;99356.59;;;23.64;100.00
55675;BME280;41562;44.330;23.802;2023-08-30T07:45:35;99363.50;;;23.51;100.00
55675;BME280;41562;44.330;23.802;2023-08-30T07:48:10;99372.84;;;23.50;100.00
55675;BME280;41562;44.330;23.802;2023-08-30T07:50:41;99388.63;;;23.71;100.00
55675;BME280;41562;44.330;23.802;2023-08-30T07:53:15;99400.38;;;23.82;99.99
55675;BME280;41562;44.330;23.802;2023-08-30T07:55:52;99403.38;;;23.62;100.00
55675;BME280;41562;44.330;23.802;2023-08-30T07:58:23;99393.91;;;23.49;100.00
55675;BME280;41562;44.330;23.802;2023-08-30T08:00:59;99379.47;;;23.52;100.00
55675;BME280;41562;44.330;23.802;2023-08-30T08:03:36;99379.75;;;23.88;100.00
55675;BME280;41562;44.330;23.802;2023-08-30T08:06:14;99366.31;;;23.61;100.00
55675;BME280;41562;44.330;23.802;2023-08-30T08:08:45;99355.53;;;23.32;100.00
55675;BME280;41562;44.330;23.802;2023-08-30T08:11:15;99346.56;;;23.31;100.00
55675;BME280;41562;44.330;23.802;2023-08-30T08:13:49;99324.78;;;23.38;100.00
55675;BME280;41562;44.330;23.802;2023-08-30T08:16:23;99313.22;;;23.52;100.00
55675;BME280;41562;44.330;23.802;2023-08-30T08:19:04;99287.34;;;23.35;100.00
55675;BME280;41562;44.330;23.802;2023-08-30T08:21:37;99271.09;;;23.02;100.00
55675;BME280;41562;44.330;23.802;2023-08-30T08:24:08;99230.22;;;23.63;100.00
55675;BME280;41562;44.330;23.802;2023-08-30T08:26:39;99191.09;;;23.38;100.00
55675;BME280;41562;44.330;23.802;2023-08-30T08:29:14;99183.31;;;23.44;100.00
55675;BME280;41562;44.330;23.802;2023-08-30T08:31:49;99180.66;;;23.51;100.00
55675;BME280;41562;44.330;23.802;2023-08-30T08:34:22;99177.63;;;23.05;100.00
55675;BME280;41562;44.330;23.802;2023-08-30T08:36:55;99187.94;;;23.36;100.00
55675;BME280;41562;44.330;23.802;2023-08-30T08:39:26;99207.16;;;23.50;100.00
55675;BME280;41562;44.330;23.802;2023-08-30T08:41:56;99224.53;;;23.28;100.00
55675;BME280;41562;44.330;23.802;2023-08-30T08:44:26;99242.03;;;23.20;100.00
55675;BME280;41562;44.330;23.802;2023-08-30T08:47:04;99238.59;;;23.34;100.00
55675;BME280;41562;44.330;23.802;2023-08-30T08:49:33;99256.03;;;23.80;100.00
55675;BME280;41562;44.330;23.802;2023-08-30T08:52:06;99261.53;;;23.91;100.00
55675;BME280;41562;44.330;23.802;2023-08-30T08:54:58;99257.47;;;24.47;100.00
55675;BME280;41562;44.330;23.802;2023-08-30T08:57:35;99268.47;;;24.96;100.00
55675;BME280;41562;44.330;23.802;2023-08-30T09:00:12;99270.81;;;25.12;99.08
55675;BME280;41562;44.330;23.802;2023-08-30T09:02:50;99270.41;;;25.42;97.46
55675;BME280;41562;44.330;23.802;2023-08-30T09:05:23;99269.59;;;25.38;99.33
55675;BME280;41562;44.330;23.802;2023-08-30T09:07:57;99273.50;;;25.51;96.69
55675;BME280;41562;44.330;23.802;2023-08-30T09:10:29;99273.13;;;25.59;95.16
55675;BME280;41562;44.330;23.802;2023-08-30T09:13:09;99271.88;;;25.82;93.64
55675;BME280;41562;44.330;23.802;2023-08-30T09:15:46;99276.56;;;25.85;92.74
55675;BME280;41562;44.330;23.802;2023-08-30T09:18:22;99274.19;;;25.90;92.23
55675;BME280;41562;44.330;23.802;2023-08-30T09:23:34;99276.19;;;25.79;89.44
55675;BME280;41562;44.330;23.802;2023-08-30T09:26:09;99276.06;;;26.08;89.13
55675;BME280;41562;44.330;23.802;2023-08-30T09:28:43;99269.41;;;26.12;88.03
55675;BME280;41562;44.330;23.802;2023-08-30T09:31:21;99278.75;;;26.18;88.02
55675;BME280;41562;44.330;23.802;2023-08-30T09:34:00;99284.25;;;26.25;88.38
55675;BME280;41562;44.330;23.802;2023-08-30T09:36:42;99295.91;;;26.40;87.56
55675;BME280;41562;44.330;23.802;2023-08-30T09:39:12;99301.88;;;26.17;84.95
55675;BME280;41562;44.330;23.802;2023-08-30T09:41:48;99303.84;;;26.17;84.30
55675;BME280;41562;44.330;23.802;2023-08-30T09:44:22;99307.44;;;25.96;87.47
55675;BME280;41562;44.330;23.802;2023-08-30T09:46:56;99309.03;;;25.90;86.12
55675;BME280;41562;44.330;23.802;2023-08-30T09:49:30;99305.50;;;25.96;88.22
55675;BME280;41562;44.330;23.802;2023-08-30T09:52:08;99308.59;;;26.02;83.23
55675;BME280;41562;44.330;23.802;2023-08-30T09:54:41;99299.88;;;26.32;79.99
55675;BME280;41562;44.330;23.802;2023-08-30T09:57:13;99295.28;;;26.00;83.38
55675;BME280;41562;44.330;23.802;2023-08-30T09:59:48;99298.38;;;26.24;83.68
55675;BME280;41562;44.330;23.802;2023-08-30T10:02:18;99292.00;;;26.41;83.70
55675;BME280;41562;44.330;23.802;2023-08-30T10:04:53;99295.09;;;26.47;84.72
55675;BME280;41562;44.330;23.802;2023-08-30T10:07:27;99288.81;;;26.53;85.99
55675;BME280;41562;44.330;23.802;2023-08-30T10:09:59;99298.25;;;26.49;83.88
55675;BME280;41562;44.330;23.802;2023-08-30T10:12:49;99299.84;;;26.42;81.64
55675;BME280;41562;44.330;23.802;2023-08-30T10:15:38;99296.28;;;26.49;79.35
55675;BME280;41562;44.330;23.802;2023-08-30T10:18:15;99290.38;;;26.51;78.93
55675;BME280;41562;44.330;23.802;2023-08-30T10:20:50;99285.97;;;26.64;81.54
55675;BME280;41562;44.330;23.802;2023-08-30T10:23:26;99284.84;;;26.61;81.75
55675;BME280;41562;44.330;23.802;2023-08-30T10:26:03;99283.97;;;26.71;83.73
55675;BME280;41562;44.330;23.802;2023-08-30T10:28:38;99279.31;;;26.65;81.68
55675;BME280;41562;44.330;23.802;2023-08-30T10:31:10;99271.16;;;26.54;80.53
55675;BME280;41562;44.330;23.802;2023-08-30T10:33:53;99272.34;;;26.50;77.25
55675;BME280;41562;44.330;23.802;2023-08-30T10:36:25;99267.44;;;26.13;79.89
55675;BME280;41562;44.330;23.802;2023-08-30T10:38:56;99260.81;;;26.07;76.92
55675;BME280;41562;44.330;23.802;2023-08-30T10:41:26;99261.19;;;26.09;77.63
55675;BME280;41562;44.330;23.802;2023-08-30T10:44:01;99261.63;;;26.03;78.36
55675;BME280;41562;44.330;23.802;2023-08-30T10:46:35;99258.78;;;26.21;78.42
55675;BME280;41562;44.330;23.802;2023-08-30T10:49:12;99260.00;;;26.13;78.92
55675;BME280;41562;44.330;23.802;2023-08-30T10:51:44;99259.22;;;26.13;81.50
55675;BME280;41562;44.330;23.802;2023-08-30T10:54:20;99258.34;;;26.33;81.01
55675;BME280;41562;44.330;23.802;2023-08-30T10:56:55;99254.38;;;26.45;79.04
55675;BME280;41562;44.330;23.802;2023-08-30T10:59:27;99249.22;;;26.54;79.05
55675;BME280;41562;44.330;23.802;2023-08-30T11:02:01;99255.16;;;26.49;77.06
55675;BME280;41562;44.330;23.802;2023-08-30T11:04:32;99252.06;;;26.40;76.79
55675;BME280;41562;44.330;23.802;2023-08-30T11:07:05;99247.81;;;26.28;78.35
55675;BME280;41562;44.330;23.802;2023-08-30T11:09:37;99250.50;;;26.39;75.50
55675;BME280;41562;44.330;23.802;2023-08-30T11:12:07;99248.88;;;26.45;76.65
55675;BME280;41562;44.330;23.802;2023-08-30T11:14:40;99249.28;;;26.43;78.05
55675;BME280;41562;44.330;23.802;2023-08-30T11:17:10;99240.66;;;26.49;76.30
55675;BME280;41562;44.330;23.802;2023-08-30T11:19:42;99248.97;;;26.31;78.14
55675;BME280;41562;44.330;23.802;2023-08-30T11:22:13;99245.09;;;26.28;78.54
55675;BME280;41562;44.330;23.802;2023-08-30T11:24:41;99242.00;;;26.16;77.52
55675;BME280;41562;44.330;23.802;2023-08-30T11:27:13;99236.41;;;26.37;76.88
55675;BME280;41562;44.330;23.802;2023-08-30T11:29:43;99235.47;;;26.58;79.37
55675;BME280;41562;44.330;23.802;2023-08-30T11:32:11;99235.09;;;26.56;76.34
55675;BME280;41562;44.330;23.802;2023-08-30T11:34:42;99223.28;;;26.62;76.84
55675;BME280;41562;44.330;23.802;2023-08-30T11:37:10;99239.69;;;26.73;76.47
55675;BME280;41562;44.330;23.802;2023-08-30T11:39:41;99223.59;;;26.75;76.76
55675;BME280;41562;44.330;23.802;2023-08-30T11:42:08;99229.06;;;26.78;75.90
55675;BME280;41562;44.330;23.802;2023-08-30T11:44:49;99240.75;;;26.86;76.79
55675;BME280;41562;44.330;23.802;2023-08-30T11:47:29;99234.41;;;27.00;76.31
55675;BME280;41562;44.330;23.802;2023-08-30T11:50:00;99222.66;;;26.96;74.57
55675;BME280;41562;44.330;23.802;2023-08-30T11:52:28;99218.41;;;26.91;73.59
55675;BME280;41562;44.330;23.802;2023-08-30T11:54:56;99218.34;;;26.98;73.41
55675;BME280;41562;44.330;23.802;2023-08-30T11:57:24;99211.38;;;26.87;72.30
55675;BME280;41562;44.330;23.802;2023-08-30T11:59:51;99212.91;;;26.88;73.67
55675;BME280;41562;44.330;23.802;2023-08-30T12:02:19;99201.53;;;26.93;74.27
55675;BME280;41562;44.330;23.802;2023-08-30T12:04:47;99204.56;;;27.02;73.75
55675;BME280;41562;44.330;23.802;2023-08-30T12:07:24;99202.94;;;27.08;74.03
55675;BME280;41562;44.330;23.802;2023-08-30T12:10:04;99206.13;;;27.03;73.49
55675;BME280;41562;44.330;23.802;2023-08-30T12:12:31;99208.44;;;27.08;73.44
55675;BME280;41562;44.330;23.802;2023-08-30T12:14:59;99205.97;;;27.20;76.69
55675;BME280;41562;44.330;23.802;2023-08-30T12:17:26;99206.34;;;27.23;75.20
55675;BME280;41562;44.330;23.802;2023-08-30T12:19:57;99198.28;;;27.05;71.32
55675;BME280;41562;44.330;23.802;2023-08-30T12:22:39;99201.38;;;27.07;71.97
55675;BME280;41562;44.330;23.802;2023-08-30T12:27:44;99201.31;;;27.14;71.48
55675;BME280;41562;44.330;23.802;2023-08-30T12:30:13;99195.88;;;27.07;70.72
55675;BME280;41562;44.330;23.802;2023-08-30T12:32:41;99195.47;;;27.12;71.67
55675;BME280;41562;44.330;23.802;2023-08-30T12:35:08;99183.91;;;27.31;74.32
55675;BME280;41562;44.330;23.802;2023-08-30T12:37:36;99190.81;;;27.43;72.10
55675;BME280;41562;44.330;23.802;2023-08-30T12:40:08;99185.47;;;27.29;71.40
55675;BME280;41562;44.330;23.802;2023-08-30T12:42:36;99184.91;;;27.44;70.19
55675;BME280;41562;44.330;23.802;2023-08-30T12:45:08;99177.97;;;27.33;70.53
55675;BME280;41562;44.330;23.802;2023-08-30T12:47:41;99177.63;;;27.31;69.88
55675;BME280;41562;44.330;23.802;2023-08-30T12:50:09;99178.25;;;27.08;69.59
55675;BME280;41562;44.330;23.802;2023-08-30T12:52:40;99177.78;;;27.16;70.21
55675;BME280;41562;44.330;23.802;2023-08-30T12:55:11;99167.19;;;27.15;69.42
55675;BME280;41562;44.330;23.802;2023-08-30T12:57:43;99164.53;;;27.08;70.69
55675;BME280;41562;44.330;23.802;2023-08-30T13:00:12;99166.00;;;27.16;69.63
55675;BME280;41562;44.330;23.802;2023-08-30T13:02:43;99162.00;;;27.24;70.05
55675;BME280;41562;44.330;23.802;2023-08-30T13:05:15;99160.66;;;27.39;71.28
55675;BME280;41562;44.330;23.802;2023-08-30T13:07:48;99160.94;;;27.48;69.70
55675;BME280;41562;44.330;23.802;2023-08-30T13:10:16;99157.09;;;27.42;69.21
55675;BME280;41562;44.330;23.802;2023-08-30T13:12:50;99159.91;;;27.35;68.97
55675;BME280;41562;44.330;23.802;2023-08-30T13:15:21;99148.56;;;27.33;69.41
55675;BME280;41562;44.330;23.802;2023-08-30T13:17:54;99147.69;;;27.40;68.87
55675;BME280;41562;44.330;23.802;2023-08-30T13:20:22;99139.31;;;27.54;70.16
55675;BME280;41562;44.330;23.802;2023-08-30T13:22:49;99141.22;;;27.57;68.30